Archival Weather

Heathrow

Heathrow, United Kingdom (EGLL)

Report from: Thursday, June 23, 2022 5:20 AM BST
Current time: Tuesday, August 16, 2022 8:36 AM BST

Current weather
Weather history
Weather forecast

Temperature15.0°C (59.0°F)
Dew point11.0°C (51.8°F)
Winds 3 kts (1.5 m/s, 3.5 mph) Vrb
Winds variableWinds variable from Northeast (40°) to North-Northwest (340°)
Visibility6.2 mi. (10 km)
Clouds Sky clear
Altimeter29.85 in.Hg (1011 mB)
Relative humidity77 %
Density altitude261 ft. (80 m)
Remarks Fully automated report
Corrected report
No clouds detected
No significant changes expected in the next two hours
Flight conditions Visual Meteorological Conditions
Raw dataCOR EGLL 230420Z AUTO 01003KT 340V040 9999 NCD 15/11 Q1011 NOSIG
An error has occurred. This application may no longer respond until reloaded. Reload 🗙